Time;durP1;ratioP1;P1;durP2;ratioP2;P2;SDS_P1;SDS_P2;PMS_P1;PMS_P2;Temp;Humidity;BMP_temperature;BMP_pressure;BME280_temperature;BME280_humidity;BME280_pressure;Samples;Min_cycle;Max_cycle;Signal;HPM_P1;HPM_P2
2023/03/14 00:00:12;;;;;;;4.10;1.73;;;;;;;10.78;84.29;98864.03;4950060;29;20384;-75
2023/03/14 00:02:38;;;;;;;10.68;2.63;;;;;;;10.75;84.27;98866.19;4948476;28;20062;-75
2023/03/14 00:05:06;;;;;;;7.18;1.92;;;;;;;10.71;83.59;98861.06;4946614;28;20034;-75
2023/03/14 00:07:35;;;;;;;6.63;2.17;;;;;;;10.69;82.90;98856.81;4950408;29;20046;-75
2023/03/14 00:10:04;;;;;;;11.07;1.75;;;;;;;10.67;82.83;98867.84;4949810;29;20089;-75
2023/03/14 00:12:29;;;;;;;7.15;1.85;;;;;;;10.63;82.33;98865.59;4950014;28;20395;-75
2023/03/14 00:14:54;;;;;;;8.43;1.52;;;;;;;10.58;82.43;98851.66;4948450;29;20023;-75
2023/03/14 00:17:20;;;;;;;6.65;1.48;;;;;;;10.53;81.75;98851.28;4948457;28;20385;-75
2023/03/14 00:19:45;;;;;;;11.73;2.33;;;;;;;10.50;82.37;98859.78;4949345;28;20031;-75
2023/03/14 00:22:10;;;;;;;6.43;1.40;;;;;;;10.45;82.37;98866.53;4948261;28;20039;-75
2023/03/14 00:24:36;;;;;;;6.75;1.55;;;;;;;10.39;82.40;98869.00;4967149;28;20046;-76
2023/03/14 00:27:02;;;;;;;7.82;1.42;;;;;;;10.29;82.13;98866.41;4944811;29;20379;-76
2023/03/14 00:29:27;;;;;;;4.95;1.63;;;;;;;10.29;82.63;98871.84;4933206;29;20383;-76
2023/03/14 00:31:53;;;;;;;6.00;1.77;;;;;;;10.25;82.28;98885.91;4949487;29;20451;-76
2023/03/14 00:34:18;;;;;;;6.28;1.60;;;;;;;10.19;82.43;98877.31;4949387;28;20039;-75
2023/03/14 00:36:44;;;;;;;5.43;1.48;;;;;;;10.20;82.40;98884.47;4949017;28;20501;-75
2023/03/14 00:39:11;;;;;;;7.55;1.25;;;;;;;10.19;81.25;98885.47;4932366;29;20419;-75
2023/03/14 00:41:37;;;;;;;6.53;1.70;;;;;;;10.16;81.78;98883.06;4946014;28;20051;-75
2023/03/14 00:44:02;;;;;;;6.65;1.73;;;;;;;10.17;82.12;98887.50;4932179;28;20031;-75
2023/03/14 00:46:27;;;;;;;7.85;1.88;;;;;;;10.18;82.15;98886.50;4948752;29;20043;-75
2023/03/14 00:48:53;;;;;;;7.32;1.50;;;;;;;10.18;81.79;98891.09;4946681;29;20402;-74
2023/03/14 00:51:18;;;;;;;6.88;1.23;;;;;;;10.20;81.77;98886.34;4946547;28;20487;-74
2023/03/14 00:53:44;;;;;;;9.55;1.48;;;;;;;10.21;81.37;98890.75;4932007;29;20499;-75
2023/03/14 00:56:12;;;;;;;9.90;1.40;;;;;;;10.23;81.00;98891.47;4948100;28;20039;-75
2023/03/14 00:58:38;;;;;;;8.52;1.50;;;;;;;10.23;81.19;98888.75;4948348;28;20035;-75
2023/03/14 01:01:13;;;;;;;5.55;1.63;;;;;;;10.24;81.21;98890.47;4948354;28;20054;-75
2023/03/14 01:03:39;;;;;;;7.22;1.45;;;;;;;10.22;81.75;98878.91;4947713;28;20039;-74
2023/03/14 01:06:20;;;;;;;8.45;1.70;;;;;;;10.22;81.29;98887.03;4948285;28;20101;-76
2023/03/14 01:08:46;;;;;;;7.13;1.50;;;;;;;10.21;81.39;98877.16;4947554;29;20046;-75
2023/03/14 01:11:27;;;;;;;7.50;1.23;;;;;;;10.22;80.82;98890.63;4947376;28;20064;-76
2023/03/14 01:13:52;;;;;;;4.53;1.65;;;;;;;10.23;80.45;98883.31;4947450;29;20453;-75
2023/03/14 01:16:19;;;;;;;5.22;1.30;;;;;;;10.24;80.35;98874.19;4931410;29;20066;-75
2023/03/14 01:18:45;;;;;;;5.18;1.80;;;;;;;10.23;80.61;98873.28;4947205;28;20050;-75
2023/03/14 01:21:21;;;;;;;5.03;1.20;;;;;;;10.23;80.42;98869.72;4946193;29;20057;-75
2023/03/14 01:23:47;;;;;;;6.47;1.70;;;;;;;10.20;80.41;98870.88;4946970;28;20043;-75
2023/03/14 01:26:15;;;;;;;6.20;1.38;;;;;;;10.20;80.49;98875.47;4930161;28;20034;-75
2023/03/14 01:28:41;;;;;;;6.38;1.55;;;;;;;10.17;80.87;98863.06;4931530;29;20491;-75
2023/03/14 01:31:09;;;;;;;7.25;1.40;;;;;;;10.16;80.67;98871.34;4915825;29;20031;-75
2023/03/14 01:33:35;;;;;;;4.97;1.08;;;;;;;10.11;81.18;98865.53;4947214;28;20121;-74
2023/03/14 01:36:03;;;;;;;5.32;1.55;;;;;;;10.09;81.22;98864.84;4947374;28;20118;-75
2023/03/14 01:38:30;;;;;;;5.95;1.48;;;;;;;10.09;81.58;98854.84;4949044;29;20062;-75
2023/03/14 01:40:56;;;;;;;2.15;1.17;;;;;;;10.09;81.08;98852.13;4946357;29;20535;-75
2023/03/14 01:43:24;;;;;;;4.72;1.35;;;;;;;10.09;80.59;98854.84;4944230;29;20290;-75
2023/03/14 01:46:04;;;;;;;3.90;1.15;;;;;;;10.08;80.89;98855.00;4946067;29;20384;-75
2023/03/14 01:49:04;;;;;;;7.93;1.23;;;;;;;10.08;81.12;98852.28;4931592;28;20320;-75
2023/03/14 01:51:53;;;;;;;6.90;1.10;;;;;;;10.03;82.36;98841.88;4946163;29;20182;-75
2023/03/14 01:54:32;;;;;;;7.97;1.40;;;;;;;10.00;82.35;98841.34;4947520;29;20117;-76
2023/03/14 01:57:22;;;;;;;7.32;1.73;;;;;;;9.98;82.50;98833.34;4946270;28;20032;-76
2023/03/14 01:59:59;;;;;;;6.80;1.65;;;;;;;9.95;82.89;98844.53;4943699;29;20051;-75
2023/03/14 02:02:27;;;;;;;8.85;2.17;;;;;;;9.93;83.16;98822.97;4943939;29;20038;-75
2023/03/14 02:04:55;;;;;;;5.68;1.55;;;;;;;9.90;83.40;98827.84;4943474;28;20040;-75
2023/03/14 02:07:35;;;;;;;8.93;1.55;;;;;;;9.90;83.32;98825.97;4944039;29;20551;-75
2023/03/14 02:10:09;;;;;;;5.00;2.17;;;;;;;9.90;83.31;98822.41;4949387;29;20118;-75
2023/03/14 02:12:36;;;;;;;6.97;1.80;;;;;;;9.91;82.93;98824.97;4942694;28;20036;-76
2023/03/14 02:15:10;;;;;;;7.40;1.80;;;;;;;9.91;83.48;98819.53;4950661;29;20031;-75
2023/03/14 02:17:54;;;;;;;6.00;1.52;;;;;;;9.92;83.68;98828.53;4938751;29;20480;-75
2023/03/14 02:21:19;;;;;;;7.43;1.80;;;;;;;9.92;83.59;98829.38;4945258;28;20483;-75
2023/03/14 02:23:58;;;;;;;7.45;1.92;;;;;;;9.93;83.49;98824.81;4932479;29;20104;-75
2023/03/14 02:26:38;;;;;;;11.18;1.67;;;;;;;9.93;83.76;98824.81;4929800;29;20047;-75
2023/03/14 02:29:03;;;;;;;2.55;1.20;;;;;;;9.91;83.66;98824.97;4947431;29;20047;-75
2023/03/14 02:31:29;;;;;;;6.63;1.65;;;;;;;9.90;83.65;98825.13;4947957;29;20123;-75
2023/03/14 02:33:56;;;;;;;6.00;1.80;;;;;;;9.86;83.88;98808.28;4947160;28;20127;-75
2023/03/14 02:36:23;;;;;;;8.82;1.55;;;;;;;9.82;84.42;98812.31;4932042;29;20592;-75
2023/03/14 02:39:08;;;;;;;8.18;2.45;;;;;;;9.76;84.06;98810.25;4947175;29;20094;-75
2023/03/14 02:41:34;;;;;;;7.85;1.90;;;;;;;9.70;84.87;98803.59;4945206;29;20042;-75
2023/03/14 02:44:03;;;;;;;7.20;1.75;;;;;;;9.66;84.73;98799.47;4947267;29;20534;-75
2023/03/14 02:46:29;;;;;;;8.20;1.63;;;;;;;9.62;85.10;98808.94;4947473;28;20028;-75
2023/03/14 02:49:02;;;;;;;7.90;2.08;;;;;;;9.64;85.56;98814.19;4931724;29;20452;-75
2023/03/14 02:51:29;;;;;;;9.43;2.45;;;;;;;9.65;85.79;98818.59;4931211;29;20670;-76
2023/03/14 02:53:55;;;;;;;10.32;1.60;;;;;;;9.66;85.79;98812.19;4931074;29;20031;-75
2023/03/14 02:56:22;;;;;;;6.07;1.70;;;;;;;9.69;85.75;98809.16;4929312;29;20298;-75
2023/03/14 02:58:48;;;;;;;6.20;1.52;;;;;;;9.71;85.54;98810.72;4946900;28;20162;-76
2023/03/14 03:01:43;;;;;;;12.48;2.63;;;;;;;9.73;85.46;98812.41;4939024;29;20579;-76
2023/03/14 03:04:08;;;;;;;6.43;1.67;;;;;;;9.73;85.37;98812.41;4938374;28;20110;-76
2023/03/14 03:06:34;;;;;;;5.13;1.67;;;;;;;9.74;85.76;98825.81;4940296;29;20049;-75
2023/03/14 03:09:00;;;;;;;7.75;2.22;;;;;;;9.75;85.77;98819.41;4966816;28;20066;-75
2023/03/14 03:11:25;;;;;;;7.07;1.58;;;;;;;9.77;85.30;98819.25;4947099;29;20042;-75
2023/03/14 03:13:50;;;;;;;4.43;1.58;;;;;;;9.78;85.78;98820.94;4949041;28;20308;-75
2023/03/14 03:16:16;;;;;;;7.70;1.52;;;;;;;9.78;85.75;98823.66;4930436;29;20046;-75
2023/03/14 03:18:41;;;;;;;11.70;1.52;;;;;;;9.77;85.73;98828.25;4935988;29;20031;-76
2023/03/14 03:21:08;;;;;;;10.45;1.77;;;;;;;9.78;85.66;98815.50;4944705;28;20039;-75
2023/03/14 03:23:34;;;;;;;11.55;2.17;;;;;;;9.78;85.65;98810.94;4931745;29;20056;-75
2023/03/14 03:25:59;;;;;;;5.55;1.45;;;;;;;9.77;84.92;98794.81;4946320;29;20508;-75
2023/03/14 03:28:25;;;;;;;8.18;1.75;;;;;;;9.78;85.65;98793.78;4945097;28;20046;-75
2023/03/14 03:30:51;;;;;;;8.05;1.83;;;;;;;9.76;85.67;98788.53;4946282;29;20016;-75
2023/03/14 03:33:16;;;;;;;6.35;1.67;;;;;;;9.73;85.82;98783.38;4946047;28;20042;-75
2023/03/14 03:35:49;;;;;;;9.95;2.30;;;;;;;9.68;85.73;98789.28;4945751;28;20558;-75
2023/03/14 03:38:20;;;;;;;7.90;1.83;;;;;;;9.71;86.39;98791.69;4914609;29;20078;-75
2023/03/14 03:40:46;;;;;;;10.02;1.80;;;;;;;9.70;86.01;98798.16;4929251;29;20463;-75
2023/03/14 03:43:12;;;;;;;3.78;1.60;;;;;;;9.68;86.07;98793.88;4913781;29;20059;-75
2023/03/14 03:45:40;;;;;;;5.60;1.40;;;;;;;9.70;85.89;98792.72;4929955;29;20761;-75
2023/03/14 03:48:06;;;;;;;3.28;1.40;;;;;;;9.69;86.27;98791.00;4933892;29;20028;-75
2023/03/14 03:50:31;;;;;;;6.28;1.58;;;;;;;9.62;85.54;98784.50;4945693;28;20059;-75
2023/03/14 03:52:57;;;;;;;8.18;1.83;;;;;;;9.68;85.41;98780.28;4946620;29;20107;-75
2023/03/14 03:55:22;;;;;;;6.03;1.40;;;;;;;9.68;85.58;98794.72;4954309;28;20043;-75
2023/03/14 03:57:48;;;;;;;5.50;1.58;;;;;;;9.68;85.40;98780.28;4944451;28;20058;-75
2023/03/14 04:00:13;;;;;;;7.03;1.55;;;;;;;9.66;86.30;98782.34;4939520;29;20519;-76
2023/03/14 04:02:41;;;;;;;3.03;1.42;;;;;;;9.62;86.64;98789.06;4949862;29;20130;-76
2023/03/14 04:05:10;;;;;;;8.23;1.60;;;;;;;9.57;86.79;98792.25;4949480;28;20494;-75
2023/03/14 04:07:38;;;;;;;5.70;1.42;;;;;;;9.52;87.16;98783.72;4932511;29;20035;-76
2023/03/14 04:10:05;;;;;;;4.60;1.38;;;;;;;9.52;87.66;98788.31;4947581;28;20050;-75
2023/03/14 04:12:35;;;;;;;3.60;1.40;;;;;;;9.51;88.16;98786.56;4949199;28;20027;-75
2023/03/14 04:15:07;;;;;;;8.00;1.40;;;;;;;9.46;88.73;98768.03;4948531;29;20039;-75
2023/03/14 04:17:34;;;;;;;8.02;1.60;;;;;;;9.42;88.64;98777.53;4948142;28;20031;-75
2023/03/14 04:20:00;;;;;;;8.32;1.70;;;;;;;9.41;88.63;98778.50;4948469;28;20114;-75
2023/03/14 04:22:33;;;;;;;5.13;1.17;;;;;;;9.37;87.92;98772.56;4935408;28;20129;-75
2023/03/14 04:24:59;;;;;;;6.78;1.90;;;;;;;9.35;88.37;98771.84;4967301;28;20038;-75
2023/03/14 04:27:24;;;;;;;4.03;1.77;;;;;;;9.35;88.34;98774.56;4941974;29;20101;-75
2023/03/14 04:29:50;;;;;;;4.68;1.23;;;;;;;9.36;88.23;98775.41;4948261;29;20074;-75
2023/03/14 04:32:21;;;;;;;5.03;1.33;;;;;;;9.36;88.47;98776.25;4947961;28;20032;-75
2023/03/14 04:34:46;;;;;;;4.93;1.42;;;;;;;9.36;88.98;98770.84;4947475;28;20044;-75
2023/03/14 04:37:12;;;;;;;2.83;1.30;;;;;;;9.35;89.31;98769.13;4948020;28;20036;-75
2023/03/14 04:39:41;;;;;;;2.63;1.30;;;;;;;9.36;89.93;98764.56;4932106;29;20042;-75
2023/03/14 04:42:23;;;;;;;;;;;;;;;9.42;89.28;98770.25;4947625;28;20050;-76
2023/03/14 04:44:49;;;;;;;2.03;1.20;;;;;;;9.40;90.73;98769.53;4947824;29;19918;-75
2023/03/14 04:47:15;;;;;;;4.18;1.33;;;;;;;9.38;91.54;98768.84;4947809;28;20447;-76
2023/03/14 04:49:42;;;;;;;4.38;1.27;;;;;;;9.34;92.11;98764.72;4946555;29;20031;-75
2023/03/14 04:52:10;;;;;;;4.18;1.15;;;;;;;9.34;93.09;98772.00;4931468;29;20027;-76
2023/03/14 04:54:36;;;;;;;5.10;1.50;;;;;;;9.31;95.70;98781.31;4950834;28;20038;-75
2023/03/14 04:57:02;;;;;;;2.70;1.20;;;;;;;9.24;96.31;98772.09;4944337;28;20027;-75
2023/03/14 04:59:31;;;;;;;3.55;1.27;;;;;;;9.18;97.63;98778.09;4932935;29;20043;-75
2023/03/14 05:02:02;;;;;;;1.27;1.00;;;;;;;9.12;98.42;98782.28;4931730;29;20562;-75
2023/03/14 05:04:57;;;;;;;4.70;1.20;;;;;;;9.05;99.21;98783.06;4948761;28;20050;-76
2023/03/14 05:07:43;;;;;;;3.45;1.20;;;;;;;9.01;99.56;98778.97;4947845;29;20073;-75
2023/03/14 05:10:29;;;;;;;4.65;1.30;;;;;;;8.96;100.00;98776.69;4947221;28;20137;-76
2023/03/14 05:13:24;;;;;;;4.13;1.20;;;;;;;8.93;100.00;98768.84;4947380;28;20281;-76
2023/03/14 05:16:05;;;;;;;5.32;1.38;;;;;;;8.90;100.00;98767.28;4947818;29;20058;-76
2023/03/14 05:18:53;;;;;;;4.10;1.27;;;;;;;8.86;100.00;98765.03;4947495;28;20031;-76
2023/03/14 05:21:38;;;;;;;1.42;1.20;;;;;;;8.85;100.00;98771.47;4948034;28;20141;-76
2023/03/14 05:24:22;;;;;;;3.15;1.30;;;;;;;8.81;100.00;98768.22;4948552;28;20139;-76
2023/03/14 05:26:50;;;;;;;7.20;1.70;;;;;;;8.79;100.00;98770.22;4947185;28;20083;-76
2023/03/14 05:29:30;;;;;;;1.73;1.45;;;;;;;8.75;100.00;98766.09;4961208;28;20038;-76
2023/03/14 05:32:32;;;;;;;3.80;1.58;;;;;;;8.73;100.00;98757.28;4927343;29;20043;-76
2023/03/14 05:35:10;;;;;;;5.80;1.73;;;;;;;8.73;100.00;98757.28;4925282;28;20142;-76
2023/03/14 05:37:48;;;;;;;3.50;1.60;;;;;;;8.75;100.00;98760.69;4931348;29;20410;-76
2023/03/14 05:40:34;;;;;;;3.78;1.70;;;;;;;8.74;100.00;98748.13;4930190;29;20031;-75
2023/03/14 05:43:02;;;;;;;2.45;1.95;;;;;;;8.74;100.00;98756.25;4947178;28;20049;-76
2023/03/14 05:45:42;;;;;;;6.13;2.00;;;;;;;8.75;100.00;98746.28;4947179;29;20039;-76
2023/03/14 05:48:40;;;;;;;4.32;2.10;;;;;;;8.76;100.00;98747.97;4926176;28;20058;-76
2023/03/14 05:51:32;;;;;;;3.97;1.98;;;;;;;8.75;100.00;98746.28;4927222;29;20058;-76
2023/03/14 05:54:20;;;;;;;4.32;2.45;;;;;;;8.74;100.00;98748.13;4912457;28;20097;-76
2023/03/14 05:57:05;;;;;;;6.10;2.28;;;;;;;8.73;100.00;98749.16;4944094;28;20121;-76
2023/03/14 05:59:38;;;;;;;4.93;2.17;;;;;;;8.73;100.00;98732.03;4947100;29;20126;-76
2023/03/14 06:02:38;;;;;;;3.78;2.13;;;;;;;8.75;100.00;98732.72;4950718;28;20130;-75
2023/03/14 06:05:12;;;;;;;8.50;2.40;;;;;;;8.76;100.00;98732.56;4948189;28;20443;-76
2023/03/14 06:07:38;;;;;;;7.45;2.28;;;;;;;8.77;100.00;98730.72;4946583;29;20035;-75
2023/03/14 06:10:05;;;;;;;5.63;2.55;;;;;;;8.78;100.00;98733.28;4961508;28;20491;-76
2023/03/14 06:12:31;;;;;;;3.97;2.50;;;;;;;8.72;100.00;98714.91;4953878;28;20090;-75
2023/03/14 06:14:56;;;;;;;5.30;2.85;;;;;;;8.78;100.00;98735.97;4958440;28;20038;-76
2023/03/14 06:17:21;;;;;;;3.70;2.58;;;;;;;8.79;100.00;98743.09;4945425;28;20058;-76
2023/03/14 06:19:52;;;;;;;5.35;2.63;;;;;;;8.79;100.00;98743.09;4945364;28;20143;-75
2023/03/14 06:22:17;;;;;;;6.90;3.10;;;;;;;8.81;100.00;98740.22;4946129;28;20031;-75
2023/03/14 06:24:43;;;;;;;4.05;2.60;;;;;;;8.79;100.00;98736.84;4945994;29;20086;-76
2023/03/14 06:27:08;;;;;;;4.32;2.42;;;;;;;8.81;100.00;98732.97;4919292;28;20039;-76
2023/03/14 06:29:34;;;;;;;6.72;3.22;;;;;;;8.82;100.00;98742.81;4933170;28;20121;-76
2023/03/14 06:31:59;;;;;;;5.03;2.40;;;;;;;8.83;100.00;98739.09;4966199;28;20039;-76
2023/03/14 06:34:25;;;;;;;4.45;2.78;;;;;;;8.84;100.00;98743.50;4958676;28;20035;-76
2023/03/14 06:36:51;;;;;;;6.43;3.30;;;;;;;8.87;100.00;98750.50;4948109;28;20159;-75
2023/03/14 06:39:16;;;;;;;6.53;3.20;;;;;;;8.87;100.00;98754.06;4949127;28;20046;-76
2023/03/14 06:41:46;;;;;;;6.50;2.85;;;;;;;8.94;100.00;98755.13;4944630;28;20439;-76
2023/03/14 06:44:11;;;;;;;6.03;3.00;;;;;;;8.98;100.00;98754.84;4962400;28;20135;-76
2023/03/14 06:46:37;;;;;;;8.57;3.65;;;;;;;9.06;100.00;98754.94;4949227;28;20027;-76
2023/03/14 06:49:03;;;;;;;5.47;3.15;;;;;;;9.14;100.00;98749.59;4959257;28;20046;-76
2023/03/14 06:51:28;;;;;;;4.85;2.92;;;;;;;9.18;100.00;98751.81;4944980;29;20045;-77
2023/03/14 06:53:53;;;;;;;4.45;2.97;;;;;;;9.28;100.00;98759.03;4930333;29;20035;-76
2023/03/14 06:56:22;;;;;;;9.82;4.22;;;;;;;9.33;100.00;98764.88;4948160;28;20760;-76
2023/03/14 06:58:47;;;;;;;8.20;3.50;;;;;;;9.36;100.00;98762.69;4933250;29;20031;-76
2023/03/14 07:01:28;;;;;;;4.70;3.30;;;;;;;9.40;100.00;98752.38;4949300;28;20047;-76
2023/03/14 07:03:58;;;;;;;11.48;3.78;;;;;;;9.44;100.00;98767.34;4948741;28;20035;-76
2023/03/14 07:06:29;;;;;;;5.93;2.65;;;;;;;9.43;100.00;98760.22;4948714;28;20149;-76
2023/03/14 07:08:54;;;;;;;6.50;3.10;;;;;;;9.44;100.00;98779.06;4949760;29;20399;-76
2023/03/14 07:11:20;;;;;;;7.07;2.88;;;;;;;9.43;100.00;98777.38;4948008;28;20109;-76
2023/03/14 07:13:46;;;;;;;7.32;3.50;;;;;;;9.35;100.00;98768.28;4950389;28;20031;-76
2023/03/14 07:16:11;;;;;;;4.85;3.13;;;;;;;9.35;100.00;98785.41;4939447;29;20042;-75
2023/03/14 07:18:37;;;;;;;10.13;3.50;;;;;;;9.34;100.00;98780.16;4949113;28;20103;-76
2023/03/14 07:21:11;;;;;;;5.05;3.08;;;;;;;9.33;100.00;98794.75;4939144;29;20432;-76
2023/03/14 07:23:38;;;;;;;8.25;3.03;;;;;;;9.31;100.00;98865.41;4933579;29;20046;-77
2023/03/14 07:26:04;;;;;;;1.63;1.40;;;;;;;9.08;100.00;98891.25;4948371;29;20118;-76
2023/03/14 07:28:31;;;;;;;2.38;0.93;;;;;;;8.67;100.00;98890.69;4945744;29;20054;-77
2023/03/14 07:31:03;;;;;;;3.58;1.00;;;;;;;8.49;100.00;98903.31;4917955;29;20082;-76
2023/03/14 07:33:31;;;;;;;1.27;0.80;;;;;;;8.30;100.00;98914.97;4948943;28;20035;-76
2023/03/14 07:35:57;;;;;;;2.00;0.70;;;;;;;8.08;98.66;98927.81;4948560;29;20343;-76
2023/03/14 07:38:22;;;;;;;1.08;0.70;;;;;;;7.97;100.00;98929.81;4948823;29;20058;-76
2023/03/14 07:41:17;;;;;;;0.77;0.68;;;;;;;7.83;100.00;98950.03;4935724;29;20416;-76
2023/03/14 07:43:58;;;;;;;0.93;0.88;;;;;;;7.67;100.00;98948.72;4949183;29;20473;-76
2023/03/14 07:46:24;;;;;;;3.47;0.90;;;;;;;7.59;100.00;98956.69;4948814;29;20068;-76
2023/03/14 07:48:50;;;;;;;0.80;0.80;;;;;;;7.52;100.00;98958.25;4950782;28;20153;-76
2023/03/14 07:51:15;;;;;;;2.42;1.10;;;;;;;7.47;100.00;98970.47;4955632;28;20402;-76
2023/03/14 07:53:40;;;;;;;1.08;0.75;;;;;;;7.47;100.00;98982.16;4967583;28;20077;-76
2023/03/14 07:56:06;;;;;;;1.65;0.90;;;;;;;7.47;100.00;98997.53;4968112;28;20537;-76
2023/03/14 07:58:34;;;;;;;1.52;0.95;;;;;;;7.49;100.00;98993.69;4955551;28;20125;-76
2023/03/14 08:00:59;;;;;;;2.17;0.90;;;;;;;7.49;100.00;99003.66;4959273;28;20053;-77
2023/03/14 08:03:28;;;;;;;2.55;1.42;;;;;;;7.50;100.00;99005.34;4951471;28;20043;-76
2023/03/14 08:05:53;;;;;;;2.22;1.33;;;;;;;7.53;100.00;99015.91;4959473;28;20494;-76
2023/03/14 08:08:18;;;;;;;2.85;1.63;;;;;;;7.58;100.00;99013.66;4955846;28;20121;-78
2023/03/14 08:10:44;;;;;;;3.20;1.73;;;;;;;7.57;100.00;99023.63;4947493;28;20054;-77
2023/03/14 08:13:10;;;;;;;3.45;1.52;;;;;;;7.63;100.00;99038.44;4954880;28;20031;-76
2023/03/14 08:15:36;;;;;;;3.22;1.75;;;;;;;7.66;100.00;99047.16;4942855;28;20499;-77
2023/03/14 08:18:03;;;;;;;2.35;1.90;;;;;;;7.65;100.00;99060.84;4954920;28;20039;-77
2023/03/14 08:20:29;;;;;;;5.18;1.88;;;;;;;7.64;100.00;99073.50;4960133;28;20488;-77
2023/03/14 08:22:59;;;;;;;2.17;1.60;;;;;;;7.62;100.00;99085.47;4950964;28;20026;-76
2023/03/14 08:25:25;;;;;;;1.80;1.70;;;;;;;7.66;100.00;99090.47;4967684;28;20050;-77
2023/03/14 08:27:51;;;;;;;4.95;1.20;;;;;;;7.68;100.00;99096.59;4955377;28;20638;-77
2023/03/14 08:30:18;;;;;;;2.03;1.42;;;;;;;7.65;100.00;99112.25;4948723;29;20129;-77
2023/03/14 08:32:43;;;;;;;2.00;1.20;;;;;;;7.66;100.00;99119.38;4949544;29;20492;-77
2023/03/14 08:35:10;;;;;;;2.47;1.50;;;;;;;7.66;100.00;99122.94;4949295;28;20261;-77
2023/03/14 08:37:36;;;;;;;2.20;1.33;;;;;;;7.66;100.00;99133.78;4948189;29;20095;-76
2023/03/14 08:40:06;;;;;;;2.50;1.33;;;;;;;7.64;100.00;99133.03;4947995;29;20444;-76
2023/03/14 08:42:33;;;;;;;2.20;1.17;;;;;;;7.61;100.00;99159.53;4947391;28;20043;-76
2023/03/14 08:44:58;;;;;;;2.70;1.30;;;;;;;7.61;100.00;99159.53;4933021;29;20039;-76
2023/03/14 08:47:24;;;;;;;3.95;1.30;;;;;;;7.64;100.00;99176.34;4976730;28;20045;-77
2023/03/14 08:49:49;;;;;;;1.95;1.20;;;;;;;7.61;100.00;99183.88;4955666;28;20085;-77
2023/03/14 08:52:16;;;;;;;5.95;1.50;;;;;;;7.57;100.00;99193.25;4947338;28;20032;-76
2023/03/14 08:54:43;;;;;;;3.20;1.35;;;;;;;7.57;100.00;99195.97;4915977;29;20031;-77
2023/03/14 08:57:08;;;;;;;5.35;1.63;;;;;;;7.55;99.99;99206.03;4943134;28;20043;-76
2023/03/14 08:59:33;;;;;;;6.78;1.35;;;;;;;7.50;100.00;99206.44;4950755;28;20047;-76
2023/03/14 09:01:59;;;;;;;2.70;1.50;;;;;;;7.51;100.00;99215.44;4948944;28;20072;-77
2023/03/14 09:04:24;;;;;;;6.28;1.70;;;;;;;7.50;100.00;99222.66;4951937;28;20050;-77
2023/03/14 09:06:50;;;;;;;6.53;1.88;;;;;;;7.52;100.00;99241.50;4962116;28;20035;-77
2023/03/14 09:09:15;;;;;;;4.38;2.05;;;;;;;7.55;100.00;99238.50;4967275;28;20482;-76
2023/03/14 09:11:41;;;;;;;7.43;2.13;;;;;;;7.61;100.00;99249.69;4964577;28;20471;-76
2023/03/14 09:14:06;;;;;;;4.72;1.75;;;;;;;7.65;100.00;99258.41;4966548;28;20029;-77
2023/03/14 09:16:33;;;;;;;4.50;1.98;;;;;;;7.61;100.00;99268.63;4967126;28;20039;-76
2023/03/14 09:18:59;;;;;;;5.47;1.92;;;;;;;7.59;100.00;99289.53;4948177;28;20118;-77
2023/03/14 09:21:26;;;;;;;2.85;1.92;;;;;;;7.51;100.00;99293.91;4954961;28;20581;-77
2023/03/14 09:23:51;;;;;;;4.93;1.95;;;;;;;7.37;100.00;99305.91;4959731;28;20385;-77
2023/03/14 09:26:16;;;;;;;3.85;1.10;;;;;;;7.18;100.00;99317.41;4966852;28;20050;-77
2023/03/14 09:28:42;;;;;;;2.17;0.88;;;;;;;7.19;100.00;99331.78;4965049;28;20290;-77
2023/03/14 09:31:09;;;;;;;2.05;0.98;;;;;;;7.08;100.00;99332.63;4966475;28;20137;-77
2023/03/14 09:33:35;;;;;;;1.92;1.23;;;;;;;6.95;100.00;99346.31;4948634;28;20075;-77
2023/03/14 09:36:01;;;;;;;2.53;1.08;;;;;;;6.89;100.00;99361.19;4942806;28;20558;-76
2023/03/14 09:38:28;;;;;;;2.35;1.10;;;;;;;6.71;100.00;99384.28;4965871;28;20074;-76
2023/03/14 09:40:55;;;;;;;2.55;1.08;;;;;;;6.65;100.00;99384.78;4958566;28;20506;-76
2023/03/14 09:43:22;;;;;;;0.80;0.70;;;;;;;6.60;99.40;99412.16;4962368;28;20043;-76
2023/03/14 09:45:50;;;;;;;1.60;0.70;;;;;;;6.56;98.40;99426.91;4961476;28;20510;-76
2023/03/14 09:48:26;;;;;;;0.80;0.68;;;;;;;6.52;97.17;99440.75;4956319;28;20479;-76
2023/03/14 09:50:56;;;;;;;1.98;0.85;;;;;;;6.37;96.34;99449.09;4948568;28;20626;-76
2023/03/14 09:53:38;;;;;;;0.95;0.95;;;;;;;6.39;97.73;99457.94;4931142;28;20196;-76
2023/03/14 09:56:08;;;;;;;2.08;0.68;;;;;;;6.48;96.16;99464.47;4944632;28;20030;-76
2023/03/14 09:58:36;;;;;;;4.65;1.23;;;;;;;6.56;95.14;99480.94;4930248;28;20495;-78
2023/03/14 10:01:02;;;;;;;1.67;0.70;;;;;;;6.61;93.71;99496.78;4964027;28;20483;-79
2023/03/14 10:03:33;;;;;;;1.80;0.80;;;;;;;6.64;91.24;99504.66;4947790;28;20488;-79
2023/03/14 10:05:58;;;;;;;1.73;0.80;;;;;;;6.78;95.18;99511.69;4959040;28;20039;-80
2023/03/14 10:08:24;;;;;;;1.40;0.60;;;;;;;6.94;89.97;99523.00;4947043;29;20417;-79
2023/03/14 10:10:49;;;;;;;6.82;1.17;;;;;;;7.02;88.22;99536.78;4947866;28;20039;-79
2023/03/14 10:13:21;;;;;;;4.25;1.08;;;;;;;7.08;90.28;99554.38;4945006;29;20035;-79
2023/03/14 10:16:16;;;;;;;4.27;1.33;;;;;;;7.08;87.64;99551.66;4948805;29;20035;-80
2023/03/14 10:18:46;;;;;;;3.47;0.75;;;;;;;6.98;88.41;99566.91;4918645;28;20403;-80
2023/03/14 10:21:29;;;;;;;5.03;1.30;;;;;;;7.04;90.13;99593.44;4952460;28;20111;-79
2023/03/14 10:23:54;;;;;;;3.45;0.98;;;;;;;7.01;85.31;99605.38;4948291;29;20507;-80
2023/03/14 10:26:33;;;;;;;4.85;1.88;;;;;;;6.96;87.24;99601.31;4945811;29;20043;-81
2023/03/14 10:29:10;;;;;;;4.88;1.17;;;;;;;6.92;86.24;99621.47;4944014;28;20080;-80
2023/03/14 10:32:00;;;;;;;4.00;1.10;;;;;;;6.98;88.61;99637.19;4952990;28;20415;-79
2023/03/14 10:34:35;;;;;;;8.18;1.52;;;;;;;7.02;87.65;99639.56;4953752;28;20511;-80
2023/03/14 10:37:08;;;;;;;7.18;1.25;;;;;;;7.05;87.12;99652.00;4967078;28;20507;-80
2023/03/14 10:39:50;;;;;;;6.78;1.27;;;;;;;7.05;87.80;99660.97;4965591;28;20043;-79
2023/03/14 10:42:24;;;;;;;10.20;1.70;;;;;;;6.93;84.59;99671.84;4962202;28;20042;-80
2023/03/14 10:44:55;;;;;;;6.45;1.55;;;;;;;6.77;84.97;99664.03;4955025;28;20042;-81
2023/03/14 10:47:24;;;;;;;6.60;1.40;;;;;;;6.76;86.37;99689.31;4953868;28;20133;-80
2023/03/14 10:49:49;;;;;;;11.20;1.73;;;;;;;6.75;86.79;99701.97;4960417;28;20574;-81
2023/03/14 10:52:25;;;;;;;12.27;3.45;;;;;;;6.82;85.63;99721.31;4966053;28;20066;-80
2023/03/14 10:55:00;;;;;;;7.45;2.00;;;;;;;6.84;86.43;99717.50;4954861;28;20453;-79
2023/03/14 10:57:27;;;;;;;5.05;1.75;;;;;;;6.89;84.09;99730.69;4962723;28;20051;-79
2023/03/14 10:59:56;;;;;;;9.32;1.58;;;;;;;6.89;83.71;99744.19;4961216;28;20062;-81
2023/03/14 11:02:40;;;;;;;8.52;1.95;;;;;;;7.02;86.45;99750.41;4967087;28;20253;-80
2023/03/14 11:05:30;;;;;;;11.80;2.17;;;;;;;7.07;84.07;99764.44;4935975;28;20159;-80
2023/03/14 11:08:02;;;;;;;6.75;2.70;;;;;;;7.08;85.49;99768.88;4962103;28;20438;-79
2023/03/14 11:10:33;;;;;;;9.03;1.70;;;;;;;7.19;86.33;99778.91;4949515;28;20058;-80
2023/03/14 11:13:26;;;;;;;11.68;2.70;;;;;;;7.27;86.52;99787.28;4962402;28;20027;-79
2023/03/14 11:16:17;;;;;;;9.00;2.20;;;;;;;7.33;82.16;99805.78;4969118;28;20046;-79
2023/03/14 11:19:11;;;;;;;11.45;2.08;;;;;;;7.34;82.88;99804.78;4969168;28;20514;-80
2023/03/14 11:21:51;;;;;;;9.85;1.45;;;;;;;7.36;84.75;99821.75;4950922;28;20043;-80
2023/03/14 11:24:45;;;;;;;11.82;1.92;;;;;;;7.34;85.26;99826.44;4949974;29;20495;-79
2023/03/14 11:27:27;;;;;;;13.80;1.50;;;;;;;7.26;85.20;99836.97;4950003;28;20062;-80
2023/03/14 11:30:03;;;;;;;11.57;2.70;;;;;;;7.06;84.55;99857.38;4951335;29;20047;-80
2023/03/14 11:32:32;;;;;;;12.55;1.67;;;;;;;6.79;84.76;99886.44;4951621;29;20299;-79
2023/03/14 11:35:01;;;;;;;8.10;1.50;;;;;;;6.19;86.28;99893.38;4948738;28;20027;-79
2023/03/14 11:37:36;;;;;;;9.52;2.17;;;;;;;5.89;87.32;99899.88;4933767;29;20047;-78
2023/03/14 11:40:19;;;;;;;6.13;2.13;;;;;;;5.88;88.12;99897.31;4939981;28;20047;-78
2023/03/14 11:42:54;;;;;;;14.20;1.80;;;;;;;5.74;86.00;99902.78;4948244;28;20495;-80
2023/03/14 11:45:27;;;;;;;13.77;1.95;;;;;;;5.74;87.69;99900.94;4962248;28;20097;-79
2023/03/14 11:48:09;;;;;;;16.98;1.83;;;;;;;5.90;88.13;99898.06;4950548;29;20411;-78
2023/03/14 11:50:36;;;;;;;7.60;1.80;;;;;;;6.02;88.43;99901.78;4948842;28;20043;-79
2023/03/14 11:53:09;;;;;;;12.60;2.33;;;;;;;6.23;89.69;99912.94;4937909;28;20027;-77